Weather observations for the past three days for
Jackson, Jackson Municipal Airport
Metric (Imperial)
Date Time (cdt) Wind (kph) Vis. (km) Weather Sky Cond. Temperature (ºC) Relative Humidity Wind Chill (°C) Heat Index (°C) Pressure Precipitation (cm)
Air Dwpt 6 hour altimeter (cm) sea level (mb) 1 hr 3 hr 6 hr
Max. Min.
10 14:15 NW 30 G 39 16.09 Fair CLR 18 -4 22% 76.5 0.0
10 13:55 NW 30 G 50 16.09 Fair CLR 18 -5 21% 76.48 0.0
10 13:35 NW 37 G 46 16.09 Fair and Breezy CLR 18 -5 21% 76.48 0.0
10 13:15 NW 35 G 46 16.09 Fair and Breezy CLR 18 -5 21% 76.5 0.0
10 12:56 NW 31 G 59 16.09 Fair CLR 17 -5 22% 76.5 0.0
10 12:35 NW 28 G 46 16.09 Fair CLR 18 -4 22% 76.5 0.0
10 12:15 NW 37 G 46 16.09 Partly Cloudy and Breezy SCT080 17 -3 25% 76.5 0.0
10 11:55 N 26 G 41 16.09 Partly Cloudy SCT080 17 -4 24% 76.48 0.0
10 11:35 W 33 G 44 16.09 Fair and Breezy CLR 17 -5 22% 76.48 0.0
10 11:15 W 30 G 37 16.09 Partly Cloudy SCT080 17 -5 22% 76.48 0.0
10 10:55 W 22 G 41 16.09 Partly Cloudy SCT080 17 -4 24% 76.48 0.0
10 10:36 W 24 G 39 16.09 Fair CLR 16 -4 25% 76.48 0.0
10 10:15 W 20 G 33 16.09 Fair CLR 16 -3 27% 76.48 0.0
10 09:55 W 26 G 39 16.09 Fair CLR 15 -4 27% 76.5 0.0
10 09:35 W 26 16.09 Fair CLR 14 -4 29% 76.5 0.0
10 09:15 SW 28 G 33 16.09 Fair CLR 14 -4 29% 76.5 0.0
10 08:55 SW 26 16.09 Fair CLR 13 -4 31% 76.5 0.0
10 08:35 SW 17 16.09 Fair CLR 11 -3 38% 76.5 0.0
10 08:16 SW 17 16.09 Fair CLR 10 -3 40% 8 76.5 0.0
10 07:55 W 15 16.09 Fair CLR 10 -4 37% 8 76.48 0.0
10 07:35 SW 17 16.09 Fair CLR 9 -3 43% 7 76.48 0.0
10 07:15 W 9 16.09 Fair CLR 8 -2 50% 7 76.48 0.0
10 06:55 W 11 16.09 Fair CLR 6 -2 57% 4 76.45 0.0
10 06:35 W 9 16.09 Fair CLR 5 -3 57% 3 76.45 0.0
10 06:15 W 9 16.09 Fair CLR 5 -3 57% 3 76.43 0.0
10 05:56 W 11 16.09 Fair CLR 4 -3 61% 2 76.43 0.0
10 05:35 W 11 16.09 Fair CLR 4 -3 61% 2 76.43 0.0
10 05:15 W 15 16.09 Fair CLR 5 -3 57% 2 76.43 0.0
10 04:55 W 11 16.09 Fair CLR 4 -3 61% 2 76.4 0.0
10 04:35 SW 7 16.09 Fair CLR 3 -3 65% 1 76.4 0.0
10 04:15 S 6 16.09 Fair CLR 4 -3 61% 76.38 0.0
10 03:55 Calm 16.09 Fair CLR 5 -3 57% 76.38 0.0
10 03:36 W 7 16.09 Fair CLR 2 -3 70% 0 76.35 0.0
10 03:15 SW 6 16.09 Fair CLR 4 -3 61% 76.33 0.0
10 02:55 Calm 16.09 Fair CLR 4 -4 56% 76.33 0.0
10 02:35 W 7 16.09 Fair CLR 4 -4 56% 2 76.33 0.0
10 02:15 W 6 16.09 Fair CLR 5 -4 53% 76.33 0.0
10 01:55 Calm 16.09 Fair CLR 6 -4 49% 76.33 0.0
10 01:35 Calm 16.09 Fair CLR 6 -4 49% 76.33 0.0
10 01:15 Calm 16.09 Fair CLR 5 -4 53% 76.33 0.0
10 00:56 W 6 16.09 Fair CLR 5 -4 53% 76.33 0.0
10 00:35 Calm 16.09 Fair CLR 5 -5 49% 76.3 0.0
10 00:15 Calm 16.09 Fair CLR 4 -5 52% 76.3 0.0
09 23:55 NW 7 16.09 Fair CLR 5 -5 49% 4 76.28 0.0
09 23:35 NW 11 16.09 Fair CLR 7 -5 43% 5 76.25 0.0
09 23:15 NW 9 16.09 Fair CLR 7 -5 43% 5 76.25 0.0
09 22:55 NW 13 16.09 Fair CLR 7 -5 43% 5 76.25 0.0
09 22:36 NW 9 16.09 Fair CLR 7 -5 43% 5 76.23 0.0
09 22:15 NW 7 16.09 Fair CLR 8 -5 40% 7 76.23 0.0
09 21:55 NW 9 16.09 Fair CLR 8 -5 40% 7 76.2 0.0
09 21:35 NW 9 16.09 Fair CLR 9 -5 37% 8 76.2 0.0
09 21:15 NW 11 16.09 Fair CLR 9 -6 34% 8 76.15 0.0
09 20:55 NW 15 16.09 Fair CLR 10 -6 32% 8 76.12 0.0
09 20:35 NW 19 16.09 Fair CLR 11 -6 30% 76.1 0.0
09 20:16 N 26 G 33 16.09 Fair CLR 12 -6 28% 76.07 0.0
09 19:55 NW 30 G 37 16.09 Fair CLR 13 -6 26% 76.05 0.0
09 19:35 N 30 G 44 16.09 Fair CLR 14 -6 25% 76.02 0.0
09 19:15 N 31 G 43 16.09 Fair CLR 14 -7 23% 76.02 0.0
09 18:55 N 28 G 39 16.09 Fair CLR 15 -7 21% 76 0.0
09 18:35 N 31 G 41 16.09 Fair CLR 15 -6 23% 76 0.0
09 18:15 NW 31 G 37 16.09 Fair CLR 15 -7 21% 75.97 0.0
09 17:56 N 22 G 41 16.09 Fair CLR 15 -6 23% 75.95 0.0
09 17:35 N 33 G 44 16.09 Fair and Breezy CLR 16 -7 20% 75.92 0.0
09 17:15 NW 35 G 50 16.09 Fair and Breezy CLR 16 -7 20% 75.92 0.0
09 16:55 N 33 G 48 16.09 Fair and Breezy CLR 16 -6 22% 75.9 0.0
09 16:35 N 26 G 50 16.09 Fair CLR 16 -5 23% 75.9 0.0
09 16:15 N 31 G 50 16.09 Fair CLR 16 -5 23% 75.9 0.0
09 15:55 N 31 G 50 16.09 Fair CLR 16 -5 23% 75.87 0.0
09 15:36 NW 37 G 50 16.09 Fair and Breezy CLR 16 -4 25% 75.87 0.0
09 15:15 N 22 G 48 16.09 Fair CLR 16 -4 25% 75.84 0.0
09 14:55 NW 31 G 54 16.09 Fair CLR 16 -4 25% 75.82 0.0
09 14:35 N 28 G 48 16.09 Fair CLR 16 -3 27% 75.82 0.0
09 14:15 NW 44 G 54 16.09 Fair and Windy CLR 16 -3 27% 75.79 0.0
09 13:55 NW 28 G 46 16.09 Fair CLR 16 -3 27% 75.79 0.0
09 13:35 N 22 G 46 16.09 Fair CLR 16 -2 29% 75.79 0.0
09 13:16 N 30 G 56 16.09 Fair CLR 15 -3 29% 75.79 0.0
09 12:35 N 28 G 52 16.09 Fair CLR 15 -2 31% 75.77 0.0
09 12:15 NW 37 G 44 16.09 Fair and Breezy CLR 15 -2 31% 75.77 0.0
09 11:55 N 24 G 44 16.09 Fair CLR 14 0 39% 75.74 0.0
09 11:35 N 41 G 48 16.09 Fair and Breezy CLR 14 1 41% 75.72 0.0
09 11:15 N 35 G 50 16.09 Fair and Breezy CLR 14 1 41% 75.72 0.0
09 10:55 N 33 G 46 16.09 Fair and Breezy CLR 13 2 47% 75.72 0.0
09 10:36 N 17 G 41 16.09 Partly Cloudy SCT035 14 3 48% 75.72 0.0
09 10:15 N 22 G 35 16.09 Partly Cloudy SCT033 13 3 51% 75.67 0.0
09 09:55 N 22 G 43 16.09 Partly Cloudy SCT031 SCT095 13 4 55% 75.64 0.0
09 09:35 N 33 G 48 16.09 Partly Cloudy and Breezy SCT024 SCT100 12 4 58% 75.62 0.0
09 09:15 N 28 G 44 16.09 Mostly Cloudy BKN024 BKN110 12 6 67% 75.62 0.0
09 08:55 NW 35 G 44 16.09 Partly Cloudy and Breezy SCT026 SCT070 SCT110 13 6 63% 75.59 0.0
09 08:35 NW 31 16.09 Partly Cloudy SCT080 12 6 67% 75.59 0.0
09 08:16 NW 22 G 37 16.09 Partly Cloudy SCT120 13 5 59% 75.57 0.0
09 07:55 NW 19 G 28 16.09 Mostly Cloudy BKN100 12 5 63% 75.54 0.0
09 07:35 W 11 16.09 Overcast OVC110 10 3 62% 9 75.51 0.0
09 07:15 W 7 16.09 Overcast OVC110 10 3 62% 9 75.49 0.0
09 06:55 NW 6 16.09 Mostly Cloudy BKN110 10 2 58% 75.49 0.0
09 06:35 NW 13 16.09 Partly Cloudy SCT120 10 1 54% 8 75.49 0.0
09 06:15 N 15 16.09 Fair CLR 10 1 54% 8 75.49 0.0
09 05:56 N 28 16.09 Partly Cloudy SCT120 11 1 50% 75.46 0.0
09 05:35 NW 33 G 46 16.09 Fair and Breezy CLR 12 -1 41% 75.44 0.0
09 05:15 NW 20 G 28 16.09 Fair CLR 12 -2 38% 75.39 0.0
09 04:55 NW 39 G 48 16.09 Fair and Breezy CLR 10 -1 47% 6 75.39 0.0
09 04:35 SW 15 16.09 Fair CLR 10 -2 43% 8 75.29 0.0
09 04:15 SW 15 16.09 Fair CLR 9 -2 46% 7 75.29 0.0
09 03:55 SW 15 16.09 Fair CLR 10 -2 43% 8 75.29 0.0
09 03:36 SW 19 16.09 Fair CLR 10 -2 43% 8 75.29 0.0
09 03:15 SW 15 16.09 Fair CLR 9 -1 50% 7 75.29 0.0
09 02:55 SW 11 16.09 Fair CLR 8 -1 53% 6 75.29 0.0
09 02:35 SW 15 16.09 Fair CLR 8 -1 53% 6 75.29 0.0
09 02:15 SW 13 16.09 Fair CLR 9 -2 46% 7 75.31 0.0
09 01:55 S 13 16.09 Fair CLR 8 -1 53% 6 75.34 0.0
09 01:35 SW 9 16.09 Fair CLR 9 -1 50% 8 75.36 0.0
09 01:16 SW 9 16.09 Fair CLR 9 -1 50% 8 75.39 0.0
09 00:55 Calm 16.09 Fair CLR 9 -2 46% 75.41 0.0
09 00:35 W 6 16.09 Fair CLR 10 -2 43% 75.41 0.0
09 00:15 W 9 16.09 Fair CLR 10 -2 43% 9 75.41 0.0
08 23:55 W 9 16.09 NULL NULL 9 -2 46% 8 75.44 0.0
08 23:35 W 9 16.09 Fair CLR 10 -3 40% 9 75.44 0.0
08 23:15 W 7 16.09 Fair CLR 11 -3 38% 75.41 0.0
08 22:55 NW 11 16.09 Fair CLR 12 -4 33% 75.44 0.0
08 22:35 NW 11 16.09 Fair CLR 12 -4 33% 75.44 0.0
08 22:15 NW 13 16.09 Fair CLR 13 -4 31% 75.44 0.0
08 21:55 NW 15 16.09 Fair CLR 14 -4 29% 75.41 0.0
08 21:35 NW 17 16.09 Fair CLR 15 -4 27% 75.41 0.0
08 21:15 NW 19 16.09 Fair CLR 16 -4 25% 75.36 0.0
08 20:55 NW 22 G 33 16.09 Fair CLR 17 -4 24% 75.36 0.0
08 20:35 NW 20 G 31 16.09 Fair CLR 18 -3 24% 75.34 0.0
08 20:15 NW 30 G 41 16.09 Fair CLR 19 -3 22% 75.31 0.0
08 19:56 NW 31 G 43 16.09 Partly Cloudy SCT100 SCT120 20 -2 23% 75.31 0.0
08 19:35 N 31 G 43 16.09 Mostly Cloudy BKN110 20 -2 23% 75.29 0.0
08 19:15 NW 28 G 37 16.09 Mostly Cloudy BKN110 21 -2 21% 75.26 0.0
08 18:55 NW 28 G 39 16.09 Partly Cloudy SCT120 21 -3 20% 75.26 0.0
08 18:35 NW 28 G 39 16.09 Partly Cloudy SCT110 22 -3 19% 75.26 0.0
08 18:15 NW 35 G 46 16.09 Mostly Cloudy and Breezy BKN110 23 -2 19% 75.26 0.0
08 17:55 NW 31 G 43 16.09 Mostly Cloudy BKN110 23 -3 17% 75.26 0.0
08 17:36 NW 20 G 43 16.09 Mostly Cloudy BKN120 22 -3 19% 75.26 0.0
08 17:15 NW 30 G 44 16.09 Partly Cloudy SCT120 24 -4 15% 24 75.23 0.0
08 16:55 NW 30 G 39 16.09 Mostly Cloudy BKN120 24 -4 15% 24 75.26 0.0
08 16:35 NW 20 G 33 16.09 Mostly Cloudy BKN120 23 -4 16% 75.26 0.0
08 16:15 W 28 G 41 16.09 Mostly Cloudy BKN110 22 -4 17% 75.26 0.0
08 15:55 W 19 16.09 Mostly Cloudy BKN110 22 -3 19% 75.29 0.0
08 15:35 W 20 16.09 Mostly Cloudy BKN110 23 -4 16% 75.31 0.0
08 15:16 NW 24 G 31 16.09 Mostly Cloudy BKN110 22 -3 19% 75.34 0.0
08 14:55 W 22 G 35 16.09 Mostly Cloudy BKN120 22 -4 17% 75.36 0.0
08 14:35 NW 22 G 41 16.09 Mostly Cloudy BKN120 22 -4 17% 75.36 0.0
08 14:15 W 24 G 43 16.09 Partly Cloudy SCT110 22 -5 16% 75.39 0.0
08 13:55 W 24 G 31 16.09 Partly Cloudy SCT110 22 -4 17% 75.41 0.0
08 13:35 W 26 G 43 16.09 Fair CLR 22 -4 17% 75.44 0.0
08 13:15 W 26 G 31 16.09 Fair CLR 21 -5 17% 75.44 0.0
08 12:56 NW 28 G 39 16.09 Fair CLR 21 -4 18% 75.49 0.0
08 12:35 NW 26 G 33 16.09 Fair CLR 21 -5 17% 75.51 0.0
08 12:15 W 24 G 37 16.09 Fair CLR 21 -5 17% 75.54 0.0
08 11:55 W 20 G 26 16.09 Fair CLR 21 -6 16% 75.57 0.0
08 11:35 W 26 G 33 16.09 Fair CLR 20 -7 16% 75.57 0.0
08 11:15 W 17 G 35 16.09 Partly Cloudy SCT095 20 -6 17% 75.59 0.0
08 10:55 W 20 G 31 16.09 Partly Cloudy SCT095 19 -7 17% 75.62 0.0
08 10:36 W 19 G 30 16.09 Fair CLR 19 -6 18% 75.62 0.0
08 10:15 W 22 G 33 16.09 Partly Cloudy SCT090 18 -5 21% 75.62 0.0
08 09:55 W 19 16.09 Mostly Cloudy BKN090 16 -5 23% 75.64 0.0
08 09:35 SW 15 16.09 Partly Cloudy SCT090 SCT120 16 -4 25% 75.64 0.0
08 09:15 SW 13 16.09 Partly Cloudy SCT120 15 -4 27% 75.67 0.0
08 08:55 SW 15 16.09 Mostly Cloudy BKN120 15 -5 25% 75.67 0.0
08 08:35 W 15 16.09 Mostly Cloudy SCT100 BKN120 14 -5 27% 75.67 0.0
08 08:16 SW 11 16.09 Mostly Cloudy SCT100 BKN120 13 -4 31% 75.67 0.0
08 07:55 SW 9 16.09 Mostly Cloudy BKN120 11 -3 38% 75.67 0.0
08 07:35 SW 11 16.09 Overcast OVC110 8 -1 53% 6 75.67 0.0
08 07:15 SW 9 16.09 Overcast OVC110 7 -1 57% 5 75.67 0.0
08 06:55 SW 9 16.09 Partly Cloudy SCT110 6 -1 61% 4 75.67 0.0
08 06:35 SW 7 16.09 Fair CLR 5 -3 57% 4 75.67 0.0
08 06:15 SW 7 16.09 Fair CLR 6 -3 53% 5 75.67 0.0
08 05:56 S 11 16.09 Fair CLR 6 -3 53% 4 75.67 0.0
08 05:35 S 11 16.09 Fair CLR 6 -3 53% 4 75.67 0.0
08 05:15 S 9 16.09 Fair CLR 7 -4 46% 5 75.67 0.0
08 04:55 SW 7 16.09 Fair CLR 4 -3 61% 2 75.67 0.0
08 04:35 SW 6 16.09 Fair CLR 5 -4 53% 75.67 0.0
08 04:15 Calm 16.09 Fair CLR 3 -3 65% 75.67 0.0
08 03:55 S 6 16.09 Fair CLR 4 -3 61% 75.69 0.0
08 03:36 S 7 16.09 Fair CLR 6 -4 49% 5 75.69 0.0
08 03:15 Calm 16.09 Fair CLR 4 -3 61% 75.69 0.0
08 02:55 S 6 16.09 Fair CLR 6 -4 49% 75.69 0.0
08 02:35 Calm 16.09 Fair CLR 5 -4 53% 75.72 0.0
08 02:15 Calm 16.09 Fair CLR 5 -4 53% 75.74 0.0
08 01:55 Calm 16.09 Fair CLR 5 -4 53% 75.74 0.0
08 01:35 Calm 16.09 Fair CLR 5 -6 45% 75.74 0.0
08 01:15 Calm 16.09 Fair CLR 5 -6 45% 75.74 0.0
08 00:56 Calm 16.09 Fair CLR 5 -6 45% 75.77 0.0
08 00:35 Calm 16.09 Fair CLR 5 -5 49% 75.77 0.0
08 00:15 E 6 16.09 Fair CLR 8 -7 34% 75.79 0.0
07 23:55 E 6 16.09 Fair CLR 8 -7 34% 75.79 0.0
07 23:35 Calm 16.09 Fair CLR 8 -7 34% 75.79 0.0
07 23:15 Calm 16.09 Fair CLR 8 -8 32% 75.79 0.0
07 22:55 Calm 16.09 Fair CLR 7 -6 39% 75.79 0.0
07 22:36 Calm 16.09 Fair CLR 10 -8 28% 75.79 0.0
07 22:15 E 6 16.09 Fair CLR 10 -9 26% 75.79 0.0
07 21:55 Calm 16.09 Fair CLR 9 -8 29% 75.79 0.0
07 21:35 N 9 16.09 Fair CLR 10 -7 30% 9 75.79 0.0
07 21:15 N 6 16.09 Fair CLR 11 -8 26% 75.77 0.0
07 20:55 N 7 16.09 Fair CLR 12 -8 24% 75.74 0.0
07 20:35 Calm 16.09 Fair CLR 13 -7 24% 75.72 0.0
07 20:16 N 11 16.09 Fair CLR 14 -7 23% 75.72 0.0
07 19:55 NW 13 16.09 Fair CLR 15 -8 20% 75.69 0.0
07 19:35 NW 15 16.09 Fair CLR 16 -8 19% 75.69 0.0
07 19:15 NW 15 16.09 Fair CLR 16 -8 19% 75.69 0.0
07 18:55 NW 17 G 28 16.09 Fair CLR 17 -8 17% 75.69 0.0
07 18:35 NW 20 G 31 16.09 Fair CLR 17 -7 19% 75.69 0.0
07 18:15 NW 15 G 35 16.09 Fair CLR 17 -7 19% 75.69 0.0
07 17:56 N 17 G 26 16.09 Fair CLR 17 -7 19% 75.69 0.0
07 17:35 W 17 16.09 Fair CLR 17 -7 19% 75.72 0.0
07 17:15 NW 17 G 26 16.09 Fair CLR 17 -6 20% 75.72 0.0
07 16:55 W 13 G 28 16.09 Fair CLR 17 -6 20% 75.74 0.0
07 16:35 W 11 16.09 Fair CLR 16 -7 20% 75.74 0.0
07 16:15 NW 17 16.09 Fair CLR 16 -6 22% 75.74 0.0
07 15:55 NW 19 G 35 16.09 Fair CLR 16 -7 20% 75.77 0.0
07 15:36 NW 11 16.09 Fair CLR 16 -6 22% 75.79 0.0
07 15:15 NW 17 G 26 16.09 Fair CLR 15 -6 23% 75.79 0.0
07 14:55 NW 22 16.09 Fair CLR 15 -6 23% 75.79 0.0
07 14:35 NW 11 G 30 16.09 Fair CLR 15 -6 23% 75.84 0.0
Date Time (cdt) Wind (kph) Vis. (km) Weather Sky Cond. Air Dwpt Max. Min. Relative Humidity Wind Chill (°C) Heat Index (°C) altimeter (cm) sea level (mb) 1 hr 3 hr 6 hr
6 hour
Temperature (ºC) Pressure Precipitation (cm)